x

Boston 16 Nm East Of Boston, Ma (44013) Wave Buoy

5:50 - Fri 28th Nov 2014 All times are EST. -5 hours from GMT.

  • Sig Wave height 4.6ft
  • Swell Direction
  • Peak Period 6s
  • Average Period 5s
  • Wind
    25mph, 27mph gusts
  • Sea Temp 50°f
  • Luft Temp 32°f
  • Sea Pressure 1014.7mb
  • Boston 16 Nm East Of Boston, Ma
  • Boston 16 Nm East Of Boston, Ma

More Historic Weather Station data

Upgrade to MSW Pro to gain access to the past 30 days of data for over 8000 Wavebouys and Weather Stations around the globe.

Join Pro

Comparision Forecast

View Surf forecast
   
Fr 11/28 5:50 4.5ft 6s 5s 25 27 mph 1014.7mb 50f 32f
4:50 5ft 6s 5s 25 27 mph 1014.3mb 50f 32f
3:50 5ft 5s 4s 20 25 mph 1014.1mb 49f 34f
2:50 4ft 6s 4s 20 25 mph 1014.2mb 49f 34f
1:50 4ft 7s 5s 20 22 mph 1014.4mb 49f 34f
12:50 4.5ft 7s 5s 16 20 mph 1014.7mb 49f 34f
Do 11/27 11:50 5ft 8s 6s 16 18 mph 1015.4mb 49f 35f
10:50 5ft 8s 6s 16 18 mph 1015.7mb 49f 34f
9:50 5.5ft 9s 6s 13 18 mph 1015.6mb 49f 35f
8:50 6ft 9s 7s 11 16 mph 1015.9mb 49f 36f
7:50 6ft 9s 7s 11 16 mph 1015.8mb 49f 37f
6:50 6ft 10s 7s 11 13 mph 1015.6mb 49f 37f
5:50 6ft 10s 7s 9 13 mph 1015.1mb 49f 37f
4:50 7ft 10s 8s 9 13 mph 1014.9mb 49f 37f
3:50 7ft 9s 7s 9 11 mph 1014.6mb 49f 37f
2:50 7ft 10s 7s 9 13 mph 1014.2mb 49f 37f
1:50 8.5ft 10s 7s 9 13 mph 1013.7mb 49f 37f
12:50 9.5ft 10s 7s 11 13 mph 1013.5mb 49f 37f
11:50 9ft 9s 7s 11 13 mph 1013.6mb 49f 37f
10:50 9.5ft 10s 7s 16 20 mph 1014.2mb 49f 37f
9:50 10ft 10s 7s 16 18 mph 1013.9mb 49f 37f
8:50 12ft 9s 8s 16 18 mph 1012.6mb 49f 37f
7:50 12ft 10s 7s 20 25 mph 1011.2mb 49f 37f
6:50 11ft 9s 7s 22 27 mph 1009.7mb 49f 37f
5:50 12.5ft 10s 7s 22 27 mph 1008.8mb 49f 37f
4:50 12ft 10s 7s 27 36 mph 1007.9mb 49f 37f
3:50 12ft 10s 7s 29 36 mph 1006.1mb 49f 36f
2:50  -   -   -  29 38 mph 1004.9mb 49f 36f
1:50 14.5ft 10s 7s 36 43 mph 1003.4mb 49f 37f
12:50 15.5ft 9s 7s 34 45 mph 1003mb 49f 38f
Mi 11/26 11:50 14ft 8s 7s 36 45 mph 1002.2mb 49f 39f
10:50 14ft 8s 7s 38 47 mph 1002.7mb 49f 40f
9:50 14.5ft 8s 7s 36 45 mph 1002.7mb 49f 42f
8:50 13.5ft 8s 7s 38 49 mph 1004.2mb 49f 43f
7:50 12.5ft 8s 6s 36 43 mph 1005.6mb 49f 43f
6:50 9.5ft 7s 6s 36 45 mph 1007.4mb 49f 42f
5:50 8ft 7s 5s 34 43 mph 1010mb 49f 42f
4:50 7ft 6s 5s 34 40 mph 1011.3mb 49f 41f
3:50 4.5ft 4s 4s 34 40 mph 1012.5mb 49f 41f
2:50 3ft 4s 4s 22 25 mph 1016.9mb 49f 40f
1:50 2.5ft 3s 4s 22 25 mph 1016.3mb 49f 40f
12:50 2.5ft 9s 4s 16 20 mph 1018.3mb 49f 41f
11:50 2.5ft 3s 4s 18 20 mph 1018.9mb 49f 42f
10:50 2.5ft 3s 4s 16 20 mph 1020.3mb 49f 42f
9:50 2.5ft 9s 4s 18 20 mph 1021.9mb 49f 44f
8:50 2.5ft 8s 4s 18 20 mph 1022mb 49f 46f
7:50 2.5ft 8s 4s 13 18 mph 1021.5mb 49f 46f
6:50 2.5ft 8s 4s 16 20 mph 1021.6mb 49f 46f
5:50 2ft 9s 4s 18 20 mph 1021.3mb 49f 47f
4:50 2ft 9s 4s 13 18 mph 1022.3mb 49f 48f
3:50 2ft 9s 6s 13
mph
1022.1mb 49f 48f
2:50 1.6ft 9s 7s 11 13 mph 1021.5mb 49f 48f
1:50 2ft 9s 7s 11
mph
1021mb 49f 48f
12:50 2ft 10s 6s 11 13 mph 1020.1mb 49f 48f
Di 11/25 11:50 2ft 10s 6s 11 13 mph 1019.7mb 49f 49f
10:50 2ft 10s 5s 9 11 mph 1019.4mb 49f 49f
9:50 2.5ft 10s 6s 11
mph
1018.6mb 49f 50f
8:50 2.5ft 10s 6s 11 13 mph 1017.6mb 49f 50f
7:50 2.5ft 10s 6s 13
mph
1016.8mb 49f 51f
6:50 2.5ft 9s 6s 11 13 mph 1015.6mb 49f 52f
5:50 3ft 10s 7s 11
mph
1014.8mb 49f 53f
4:50 3ft 11s 7s 11
mph
1013.9mb 50f 54f
3:50 3ft 10s 6s 11
mph
1012.5mb 50f 54f
2:50 2.5ft 11s 5s 11
mph
1011.9mb 50f 55f
1:50 2.5ft 10s 5s 11 16 mph 1011.7mb 50f 56f
12:50 2.5ft 10s 5s 11 13 mph 1011.4mb 50f 57f
11:50 2.5ft 9s 5s 11 13 mph 1011.6mb 50f 57f
10:50 3ft 10s 5s 13 16 mph 1011.2mb 50f 58f
9:50 2.5ft 11s 5s 13 16 mph 1011.3mb 50f 57f
8:50 3ft 10s 5s 9 11 mph 1010.8mb 50f 54f
7:50 3ft 10s 5s 11 13 mph 1010.1mb 50f 54f
6:50 2.5ft 10s 5s 16 18 mph 1009.3mb 50f 53f
5:50 2.5ft 10s 6s 18 20 mph 1008.8mb 50f 54f
4:50 2.5ft 9s 5s 16 18 mph 1007.9mb 50f 53f
3:50 2ft 10s 5s 13
mph
1007.3mb 50f 53f
2:50 2ft 10s 4s 11
mph
1007mb 50f 52f
1:50 2ft 10s 4s 11 13 mph 1006.7mb 50f 54f
12:50 2.5ft 9s 4s 9 11 mph 1005.8mb 50f 54f
Mo 11/24 11:50 2.5ft 4s 4s 13 16 mph 1005.5mb 50f 55f
10:50 3ft 4s 4s 16 18 mph 1005.2mb 50f 56f
9:50 3.5ft 5s 4s 16 20 mph 1004.9mb 49f 56f
8:50 3.5ft 5s 4s 20 25 mph 1004.2mb 49f 57f
7:50 4.5ft 5s 4s 22 25 mph 1003.8mb 49f 58f
6:50 4.5ft 4s 4s 27 36 mph 1003.5mb 49f 59f
5:50 3.5ft 5s 4s 22 27 mph 1002.1mb 49f 58f
4:50 3.5ft 6s 4s 18 22 mph 1003.1mb 49f 59f
3:50 4.5ft 6s 4s 18 29 mph 1002.9mb 49f 59f
2:50 5ft 6s 4s 20 29 mph 1003.1mb 50f 60f
1:50 5ft 6s 5s 22 34 mph 1003.4mb 50f 59f
12:50 5ft 6s 5s 16 18 mph 1004mb 50f 57f